Time;durP1;ratioP1;P1;durP2;ratioP2;P2;SDS_P1;SDS_P2;PMS_P1;PMS_P2;Temp;Humidity;BMP_temperature;BMP_pressure;BME280_temperature;BME280_humidity;BME280_pressure;Samples;Min_cycle;Max_cycle;Signal;HPM_P1;HPM_P2
2023/01/04 00:00:30;;;;;;;5.43;3.10;;;;;;;6.51;nan;101742.16;5019537;28;20065;-83
2023/01/04 00:02:56;;;;;;;4.57;2.97;;;;;;;6.54;nan;101745.41;5003276;28;20034;-84
2023/01/04 00:05:21;;;;;;;5.45;2.97;;;;;;;6.58;nan;101739.03;5004144;28;20497;-84
2023/01/04 00:07:46;;;;;;;5.32;3.40;;;;;;;6.59;nan;101739.88;4999901;28;20116;-84
2023/01/04 00:10:13;;;;;;;10.07;3.88;;;;;;;6.62;nan;101750.19;5020391;28;20026;-84
2023/01/04 00:12:38;;;;;;;4.72;3.40;;;;;;;6.60;nan;101741.56;5018848;28;20037;-84
2023/01/04 00:15:04;;;;;;;6.05;3.13;;;;;;;6.57;nan;101745.22;5022234;28;20993;-84
2023/01/04 00:17:29;;;;;;;5.65;3.70;;;;;;;6.56;nan;101747.97;5017206;28;20046;-84
2023/01/04 00:19:54;;;;;;;6.90;4.22;;;;;;;6.60;nan;101752.06;5013360;28;20042;-84
2023/01/04 00:22:19;;;;;;;7.40;4.60;;;;;;;6.62;nan;101741.47;5019777;28;20045;-83
2023/01/04 00:24:45;;;;;;;8.05;5.35;;;;;;;6.61;nan;101743.25;5002464;28;20562;-84
2023/01/04 00:27:10;;;;;;;9.75;5.90;;;;;;;6.64;nan;101743.06;5020055;28;20061;-84
2023/01/04 00:29:35;;;;;;;11.98;6.60;;;;;;;6.63;nan;101748.44;5021091;28;20088;-84
2023/01/04 00:32:00;;;;;;;11.35;7.35;;;;;;;6.61;nan;101742.41;5003471;28;20029;-84
2023/01/04 00:34:26;;;;;;;;;;;;;;;6.66;nan;101745.59;5004660;28;20112;-84
2023/01/04 00:36:51;;;;;;;9.97;6.97;;;;;;;6.66;nan;101737.72;5019869;28;19925;-84
2023/01/04 00:39:17;;;;;;;10.25;7.70;;;;;;;6.63;nan;101735.28;5018914;28;20122;-85
2023/01/04 00:41:43;;;;;;;;;;;;;;;6.66;nan;101721.94;5002988;28;20542;-84
2023/01/04 00:44:10;;;;;;;12.57;8.63;;;;;;;6.64;nan;101735.16;5020483;28;19921;-84
2023/01/04 00:46:35;;;;;;;13.23;8.88;;;;;;;6.57;nan;101725.97;5002319;28;20045;-84
2023/01/04 00:49:01;;;;;;;14.00;9.38;;;;;;;6.54;nan;101721.75;5018553;28;20045;-84
2023/01/04 00:51:28;;;;;;;13.10;9.20;;;;;;;6.55;nan;101725.22;5001160;28;20512;-84
2023/01/04 00:53:53;;;;;;;13.90;8.82;;;;;;;6.51;nan;101716.72;5005149;28;20057;-84
2023/01/04 00:56:19;;;;;;;14.40;9.48;;;;;;;6.45;nan;101722.34;5013240;28;20041;-84
2023/01/04 00:58:44;;;;;;;12.93;8.90;;;;;;;6.43;nan;101724.22;5029059;28;20046;-84
2023/01/04 01:01:09;;;;;;;13.32;8.55;;;;;;;6.36;nan;101722.91;5028912;28;20072;-85
2023/01/04 01:03:35;;;;;;;15.93;9.57;;;;;;;6.31;nan;101717.94;5015341;28;20076;-85
2023/01/04 01:06:05;;;;;;;12.52;8.52;;;;;;;6.25;nan;101726.22;5034537;28;20091;-84
2023/01/04 01:08:32;;;;;;;13.18;9.70;;;;;;;6.20;nan;101715.16;5013184;28;20407;-84
2023/01/04 01:11:07;;;;;;;13.05;9.07;;;;;;;6.18;nan;101717.03;5009055;28;20037;-85
2023/01/04 01:13:32;;;;;;;13.20;8.27;;;;;;;6.13;nan;101713.84;5013426;28;20044;-84
2023/01/04 01:16:09;;;;;;;12.23;8.88;;;;;;;6.19;nan;101702.09;5024825;28;20411;-84
2023/01/04 01:18:36;;;;;;;11.20;8.27;;;;;;;6.19;nan;101709.97;5014067;28;20141;-85
2023/01/04 01:21:06;;;;;;;12.45;8.63;;;;;;;6.13;nan;101703.34;5014497;28;20072;-85
2023/01/04 01:23:32;;;;;;;10.63;8.52;;;;;;;6.11;nan;101689.44;5033133;28;20064;-84
2023/01/04 01:26:01;;;;;;;10.15;7.97;;;;;;;6.18;nan;101692.53;5029110;28;20471;-84
2023/01/04 01:28:27;;;;;;;9.80;7.82;;;;;;;6.25;nan;101696.47;5031670;28;20987;-84
2023/01/04 01:30:52;;;;;;;11.55;8.15;;;;;;;6.22;nan;101696.66;5014808;28;20115;-83
2023/01/04 01:33:18;;;;;;;10.30;7.72;;;;;;;6.18;nan;101690.75;5013887;28;20041;-84
2023/01/04 01:35:43;;;;;;;9.20;7.63;;;;;;;6.26;nan;101691.13;5008684;28;20439;-84
2023/01/04 01:38:08;;;;;;;8.10;7.03;;;;;;;6.34;nan;101696.75;5007049;28;20420;-84
2023/01/04 01:40:33;;;;;;;9.77;7.80;;;;;;;6.44;nan;101690.94;5008082;28;20852;-84
2023/01/04 01:42:59;;;;;;;8.00;6.43;;;;;;;6.41;nan;101701.59;5028301;28;20442;-84
2023/01/04 01:45:31;;;;;;;9.50;7.47;;;;;;;6.45;nan;101684.72;5029356;28;20660;-84
2023/01/04 01:48:02;;;;;;;8.93;7.22;;;;;;;6.43;nan;101690.06;5011954;28;20376;-84
2023/01/04 01:50:39;;;;;;;;;;;;;;;6.35;nan;101687.06;5023618;28;20049;-84
2023/01/04 01:53:07;;;;;;;14.23;8.65;;;;;;;6.37;nan;101687.84;5014223;28;19939;-84
2023/01/04 01:55:35;;;;;;;10.13;7.50;;;;;;;6.25;nan;101685.97;5013347;28;20049;-84
2023/01/04 01:58:03;;;;;;;12.93;8.23;;;;;;;6.22;nan;101675.63;5006143;28;20099;-84
2023/01/04 02:00:29;;;;;;;10.95;7.20;;;;;;;6.19;nan;101673.22;5030686;28;20048;-85
2023/01/04 02:03:12;;;;;;;11.95;7.90;;;;;;;6.18;nan;101672.38;5014500;28;20535;-84
2023/01/04 02:05:37;;;;;;;12.15;7.20;;;;;;;6.18;nan;101671.53;5006963;28;20034;-84
2023/01/04 02:08:04;;;;;;;9.68;7.10;;;;;;;6.14;nan;101663.81;5014257;28;20394;-84
2023/01/04 02:10:30;;;;;;;9.77;7.18;;;;;;;6.20;nan;101656.50;5009744;28;20432;-84
2023/01/04 02:12:56;;;;;;;10.00;6.97;;;;;;;6.20;nan;101656.50;5011340;28;20092;-84
2023/01/04 02:15:25;;;;;;;;;;;;;;;6.22;nan;101659.88;5009490;28;20032;-84
2023/01/04 02:18:02;;;;;;;10.15;7.22;;;;;;;6.16;nan;101647.97;5012953;28;19924;-84
2023/01/04 02:20:35;;;;;;;11.50;7.80;;;;;;;6.14;nan;101645.44;5011773;28;20128;-84
2023/01/04 02:23:03;;;;;;;11.50;7.90;;;;;;;6.14;nan;101631.47;5029061;28;20676;-84
2023/01/04 02:25:53;;;;;;;10.95;8.57;;;;;;;6.14;nan;101623.59;5013732;28;20037;-83
2023/01/04 02:28:43;;;;;;;12.10;8.35;;;;;;;6.18;nan;101626.88;5028893;28;20129;-83
2023/01/04 02:31:30;;;;;;;13.57;8.88;;;;;;;6.18;nan;101626.88;5024770;28;20068;-83
2023/01/04 02:33:59;;;;;;;;;;;;;;;6.19;nan;101624.16;5010797;28;20036;-83
2023/01/04 02:36:55;;;;;;;13.15;9.27;;;;;;;6.23;nan;101622.19;5025794;28;20358;-84
2023/01/04 02:39:37;;;;;;;10.32;8.10;;;;;;;6.35;nan;101626.66;5011268;28;20424;-84
2023/01/04 02:42:21;;;;;;;12.18;8.20;;;;;;;6.42;nan;101620.06;5005151;28;20525;-84
2023/01/04 02:44:53;;;;;;;10.93;8.25;;;;;;;6.44;nan;101615.56;5022298;28;20127;-83
2023/01/04 02:50:32;;;;;;;11.98;8.52;;;;;;;6.42;nan;101606.94;5023706;28;20043;-84
2023/01/04 02:53:03;;;;;;;10.88;7.80;;;;;;;6.38;nan;101615.94;5023636;28;20070;-84
2023/01/04 02:55:47;;;;;;;11.73;8.05;;;;;;;6.34;nan;101632.84;5008193;28;20053;-84
2023/01/04 02:58:19;;;;;;;11.15;7.78;;;;;;;6.24;nan;101634.38;5021886;28;20049;-83
2023/01/04 03:06:43;;;;;;;12.73;8.90;;;;;;;5.97;nan;101627.28;5020381;28;20048;-84
2023/01/04 03:09:20;;;;;;;14.90;10.23;;;;;;;5.96;nan;101612.47;5025157;28;20570;-82
2023/01/04 03:14:49;;;;;;;13.00;9.23;;;;;;;6.00;nan;101607.84;5023735;28;20095;-83
2023/01/04 03:17:18;;;;;;;12.88;9.07;;;;;;;6.00;nan;101600.81;5018353;28;20117;-83
2023/01/04 03:19:55;;;;;;;13.77;10.15;;;;;;;6.05;nan;101608.41;5023974;28;20096;-83
2023/01/04 03:36:36;;;;;;;12.55;8.45;;;;;;;6.11;nan;101579.16;5023205;28;20143;-84
2023/01/04 03:48:30;;;;;;;10.65;7.60;;;;;;;6.18;nan;101577.00;5026409;28;20137;-84
2023/01/04 03:51:09;;;;;;;9.80;7.10;;;;;;;6.23;nan;101560.00;5026275;28;20050;-83
2023/01/04 03:53:46;;;;;;;9.27;6.28;;;;;;;6.26;nan;101558.94;5002565;28;20516;-84
2023/01/04 03:56:13;;;;;;;11.38;6.03;;;;;;;6.28;nan;101564.94;5018603;28;20044;-83
2023/01/04 03:58:39;;;;;;;;;;;;;;;6.24;nan;101560.81;5027990;28;20030;-83
2023/01/04 04:01:04;;;;;;;;;;;;;;;6.30;nan;101555.19;5006264;28;19924;-84
2023/01/04 04:08:59;;;;;;;9.68;6.43;;;;;;;6.26;nan;101540.56;5025583;28;20624;-83
2023/01/04 04:11:31;;;;;;;9.45;6.47;;;;;;;6.29;nan;101537.72;5005637;28;20540;-83
2023/01/04 04:13:58;;;;;;;8.45;6.28;;;;;;;6.23;nan;101528.47;5006239;28;20499;-84
2023/01/04 04:16:24;;;;;;;10.52;6.72;;;;;;;6.25;nan;101531.84;5028560;28;20044;-84
2023/01/04 04:18:49;;;;;;;10.55;6.40;;;;;;;6.25;nan;101523.13;5008723;28;20041;-84
2023/01/04 04:21:14;;;;;;;8.03;6.40;;;;;;;6.36;nan;101533.75;5008640;28;20423;-85
2023/01/04 04:23:40;;;;;;;9.98;6.15;;;;;;;6.40;nan;101545.75;5030898;28;20053;-85
2023/01/04 04:26:05;;;;;;;7.97;6.25;;;;;;;6.36;nan;101542.50;5011482;28;20140;-85
2023/01/04 04:28:31;;;;;;;9.57;6.30;;;;;;;6.35;nan;101551.31;5026612;28;20033;-84
2023/01/04 04:30:56;;;;;;;7.30;5.70;;;;;;;6.47;nan;101548.84;5026178;28;20421;-85
2023/01/04 04:33:21;;;;;;;11.45;7.97;;;;;;;6.40;nan;101551.00;5026029;28;20045;-85
2023/01/04 04:35:51;;;;;;;13.68;8.80;;;;;;;6.31;nan;101551.59;5031030;28;20125;-85
2023/01/04 04:38:17;;;;;;;12.77;8.88;;;;;;;6.30;nan;101548.16;5017958;28;20036;-85
2023/01/04 04:43:26;;;;;;;15.75;10.77;;;;;;;6.08;nan;101546.06;5027552;28;20461;-85
2023/01/04 04:45:51;;;;;;;16.05;11.30;;;;;;;6.01;nan;101538.69;5010023;28;20041;-85
2023/01/04 04:48:16;;;;;;;;;;;;;;;5.98;nan;101529.19;5009914;28;20111;-85
2023/01/04 04:50:42;;;;;;;18.70;12.40;;;;;;;5.92;nan;101540.06;5009023;28;19921;-85
2023/01/04 04:53:07;;;;;;;19.92;12.90;;;;;;;5.82;nan;101531.09;5025565;28;20039;-85
2023/01/04 04:55:32;;;;;;;20.88;14.18;;;;;;;5.75;nan;101522.75;5008158;28;20593;-84
2023/01/04 04:57:57;;;;;;;22.80;14.85;;;;;;;5.69;nan;101513.47;5007116;28;20052;-85
2023/01/04 05:00:23;;;;;;;;;;;;;;;5.63;nan;101523.50;5007078;28;20025;-84
2023/01/04 05:02:48;;;;;;;23.00;14.65;;;;;;;5.54;nan;101517.88;5008889;28;19920;-84
2023/01/04 05:05:13;;;;;;;25.35;16.02;;;;;;;5.49;nan;101511.25;5007237;28;20040;-85
2023/01/04 05:07:39;;;;;;;24.83;16.40;;;;;;;5.46;nan;101516.69;5014011;28;20053;-85
2023/01/04 05:10:04;;;;;;;24.85;16.33;;;;;;;5.48;nan;101515.66;5025227;28;20784;-86
2023/01/04 05:15:14;;;;;;;;;;;;;;;5.46;nan;101524.56;5030755;28;20401;-85
2023/01/04 05:17:39;;;;;;;;;;;;;;;5.47;nan;101529.69;5016088;28;19929;-86
2023/01/04 05:20:04;;;;;;;24.00;16.23;;;;;;;5.47;nan;101523.59;5011533;28;19917;-85
2023/01/04 05:22:30;;;;;;;22.50;15.27;;;;;;;5.49;nan;101519.13;5011266;28;20067;-85
2023/01/04 05:24:55;;;;;;;23.98;15.95;;;;;;;5.53;nan;101512.75;5009930;28;20499;-85
2023/01/04 05:27:20;;;;;;;24.70;15.43;;;;;;;5.53;nan;101502.25;5011997;28;20124;-84
2023/01/04 05:32:30;;;;;;;24.95;15.10;;;;;;;5.58;nan;101494.06;5044034;28;20086;-87
2023/01/04 05:34:55;;;;;;;21.30;13.90;;;;;;;5.57;nan;101493.22;5049386;28;20029;-86
2023/01/04 05:37:20;;;;;;;22.02;14.50;;;;;;;5.62;nan;101496.41;5054174;28;20028;-87
2023/01/04 05:39:46;;;;;;;23.30;14.88;;;;;;;5.64;nan;101494.53;5033218;28;20103;-86
2023/01/04 05:42:26;;;;;;;23.60;14.52;;;;;;;5.63;nan;101492.88;5038075;28;20022;-87
2023/01/04 05:44:58;;;;;;;22.55;14.43;;;;;;;5.66;nan;101487.41;5037824;28;20051;-85
2023/01/04 05:47:24;;;;;;;21.98;14.30;;;;;;;5.70;nan;101482.84;5047565;28;20025;-88
2023/01/04 05:49:50;;;;;;;21.88;14.45;;;;;;;5.71;nan;101474.84;5057152;28;20059;-86
2023/01/04 05:52:16;;;;;;;22.42;14.25;;;;;;;5.72;nan;101480.94;5039258;28;20117;-85
2023/01/04 05:54:41;;;;;;;23.30;15.02;;;;;;;5.67;nan;101473.38;5023111;28;20074;-85
2023/01/04 05:57:07;;;;;;;23.17;14.63;;;;;;;5.72;nan;101483.56;5022443;28;20052;-86
2023/01/04 05:59:32;;;;;;;24.35;15.02;;;;;;;5.73;nan;101466.88;5035047;28;20119;-85
2023/01/04 06:01:57;;;;;;;;;;;;;;;5.76;nan;101474.56;5002525;28;20038;-84
2023/01/04 06:04:23;;;;;;;22.55;14.10;;;;;;;5.75;nan;101478.13;5032696;28;19913;-85
2023/01/04 06:06:48;;;;;;;23.13;14.43;;;;;;;5.70;nan;101477.59;5029542;28;20038;-85
2023/01/04 06:09:14;;;;;;;24.10;15.48;;;;;;;5.76;nan;101469.31;5006950;28;20302;-85
2023/01/04 06:11:40;;;;;;;23.98;14.80;;;;;;;5.76;nan;101466.69;5020238;28;20044;-86
2023/01/04 06:14:05;;;;;;;21.95;14.02;;;;;;;5.77;nan;101471.00;5012993;28;20108;-85
2023/01/04 06:16:31;;;;;;;20.35;13.15;;;;;;;5.73;nan;101454.59;5030759;28;20095;-85
2023/01/04 06:18:56;;;;;;;24.42;15.20;;;;;;;5.81;nan;101461.97;5021239;28;20039;-84
2023/01/04 06:21:24;;;;;;;22.33;14.40;;;;;;;5.77;nan;101451.78;5033602;28;20033;-85
2023/01/04 06:23:49;;;;;;;23.35;14.25;;;;;;;5.79;nan;101445.47;5013466;28;20034;-85
2023/01/04 06:26:14;;;;;;;22.65;13.30;;;;;;;5.75;nan;101444.00;5031107;28;20106;-84
2023/01/04 06:28:40;;;;;;;24.20;13.45;;;;;;;5.75;nan;101441.38;5005884;28;20034;-85
2023/01/04 06:31:06;;;;;;;20.63;12.50;;;;;;;5.79;nan;101440.22;5011807;28;20052;-85
2023/01/04 06:33:32;;;;;;;20.13;12.90;;;;;;;5.83;nan;101456.63;5011330;28;20037;-84
2023/01/04 06:35:58;;;;;;;20.98;13.20;;;;;;;5.82;nan;101452.34;5012569;28;20029;-87
2023/01/04 06:38:23;;;;;;;19.67;12.50;;;;;;;5.84;nan;101459.19;5006712;28;20577;-85
2023/01/04 06:40:48;;;;;;;21.30;12.27;;;;;;;5.83;nan;101454.00;5015650;28;20064;-87
2023/01/04 06:43:14;;;;;;;17.65;11.73;;;;;;;5.83;nan;101465.34;5004171;28;20049;-85
2023/01/04 06:45:41;;;;;;;18.63;11.45;;;;;;;5.88;nan;101460.66;5010374;28;20472;-85
2023/01/04 06:48:06;;;;;;;16.65;11.05;;;;;;;5.88;nan;101470.31;5028849;28;20025;-85
2023/01/04 06:50:34;;;;;;;19.08;11.27;;;;;;;5.93;nan;101462.97;5013670;28;20120;-86
2023/01/04 06:53:00;;;;;;;17.70;10.65;;;;;;;5.93;nan;101460.34;5010823;28;20037;-85
2023/01/04 06:55:26;;;;;;;16.08;10.85;;;;;;;5.97;nan;101454.00;5014365;28;20094;-86
2023/01/04 06:57:51;;;;;;;16.23;10.00;;;;;;;6.01;nan;101463.38;5012822;28;20037;-85
2023/01/04 07:00:16;;;;;;;;;;;;;;;6.02;nan;101462.41;5013259;28;20032;-85
2023/01/04 07:02:41;;;;;;;15.70;9.15;;;;;;;5.99;nan;101448.66;5012128;28;20401;-86
2023/01/04 07:05:07;;;;;;;15.25;8.82;;;;;;;6.08;nan;101445.44;5015339;28;20638;-85
2023/01/04 07:07:34;;;;;;;14.25;8.77;;;;;;;6.11;nan;101440.81;5009643;28;20045;-84
2023/01/04 07:10:00;;;;;;;11.70;8.10;;;;;;;6.12;nan;101434.63;5011792;28;20037;-84
2023/01/04 07:12:25;;;;;;;13.13;8.65;;;;;;;6.17;nan;101423.81;5005775;28;20108;-85
2023/01/04 07:14:50;;;;;;;11.43;7.90;;;;;;;6.22;nan;101427.00;5010105;28;20075;-85
2023/01/04 07:17:16;;;;;;;12.50;8.00;;;;;;;6.27;nan;101409.16;5008861;28;20037;-85
2023/01/04 07:19:41;;;;;;;12.13;7.82;;;;;;;6.29;nan;101415.13;5012594;28;20053;-85
2023/01/04 07:22:06;;;;;;;10.27;7.22;;;;;;;6.34;nan;101420.06;5008615;28;20033;-86
2023/01/04 07:24:31;;;;;;;12.95;7.68;;;;;;;6.33;nan;101413.13;5013391;28;20048;-86
2023/01/04 07:26:59;;;;;;;11.98;7.20;;;;;;;6.38;nan;101409.25;5023135;28;20033;-85
2023/01/04 07:29:24;;;;;;;11.43;7.25;;;;;;;6.41;nan;101431.00;5008708;28;20030;-85
2023/01/04 07:31:50;;;;;;;12.32;7.75;;;;;;;6.38;nan;101432.06;5013557;28;20056;-86
2023/01/04 07:34:17;;;;;;;9.90;6.38;;;;;;;6.32;nan;101429.84;5010334;28;20038;-86
2023/01/04 07:36:43;;;;;;;12.45;7.03;;;;;;;6.28;nan;101425.75;5012085;28;20084;-87
2023/01/04 07:39:09;;;;;;;10.00;6.03;;;;;;;6.28;nan;101423.94;5028062;28;20678;-87
2023/01/04 07:41:36;;;;;;;10.95;6.45;;;;;;;6.27;nan;101426.66;5003455;28;20100;-86
2023/01/04 07:44:01;;;;;;;11.07;6.97;;;;;;;6.24;nan;101424.25;4997471;28;20398;-89
2023/01/04 07:46:27;;;;;;;11.40;6.50;;;;;;;6.24;nan;101427.72;5006927;28;20038;-86
2023/01/04 07:48:52;;;;;;;12.95;6.93;;;;;;;6.24;nan;101419.00;5026624;28;20057;-85
2023/01/04 07:51:18;;;;;;;10.73;6.50;;;;;;;6.24;nan;101405.88;5010583;28;20513;-88
2023/01/04 07:53:43;;;;;;;10.95;6.85;;;;;;;6.25;nan;101407.56;5010311;28;20030;-86
2023/01/04 07:56:08;;;;;;;10.75;6.78;;;;;;;6.31;nan;101397.47;5010192;28;20029;-86
2023/01/04 07:58:34;;;;;;;9.60;6.32;;;;;;;6.27;nan;101385.50;5029137;28;20508;-86
2023/01/04 08:01:11;;;;;;;10.82;5.82;;;;;;;6.30;nan;101389.72;5028535;28;20069;-86
2023/01/04 08:03:36;;;;;;;9.63;6.00;;;;;;;6.36;nan;101389.28;5028248;28;20094;-85
2023/01/04 08:06:03;;;;;;;11.25;6.20;;;;;;;6.36;nan;101386.66;4996968;28;20033;-86
2023/01/04 08:08:28;;;;;;;8.60;5.80;;;;;;;6.38;nan;101387.41;5010980;28;20506;-86
2023/01/04 08:10:54;;;;;;;9.75;5.88;;;;;;;6.47;nan;101383.31;5010922;28;20030;-86
2023/01/04 08:13:19;;;;;;;7.97;5.78;;;;;;;6.45;nan;101380.78;5012875;28;20029;-87
2023/01/04 08:15:51;;;;;;;9.52;5.40;;;;;;;6.51;nan;101383.00;5010988;28;20038;-86
2023/01/04 08:18:16;;;;;;;9.35;5.90;;;;;;;6.57;nan;101384.38;5030064;28;20041;-86
2023/01/04 08:20:42;;;;;;;9.27;5.35;;;;;;;6.63;nan;101380.50;5011481;28;20041;-86
2023/01/04 08:23:07;;;;;;;7.70;5.47;;;;;;;6.73;nan;101381.53;5014503;28;20033;-86
2023/01/04 08:25:32;;;;;;;7.95;4.65;;;;;;;6.74;nan;101383.19;5030804;28;20033;-85
2023/01/04 08:27:57;;;;;;;9.50;5.00;;;;;;;6.79;nan;101391.59;5031855;28;20119;-85
2023/01/04 08:30:23;;;;;;;7.85;4.57;;;;;;;6.75;nan;101393.63;5019342;28;20034;-86
2023/01/04 08:32:49;;;;;;;6.72;4.47;;;;;;;6.81;nan;101400.22;5020677;28;20088;-87
2023/01/04 08:35:14;;;;;;;8.88;4.95;;;;;;;6.83;nan;101414.13;5014356;28;20048;-85
2023/01/04 08:37:40;;;;;;;7.60;4.72;;;;;;;6.86;nan;101413.06;5013359;28;20046;-85
2023/01/04 08:40:06;;;;;;;8.00;4.60;;;;;;;6.84;nan;101407.06;5031488;28;20418;-85
2023/01/04 08:42:31;;;;;;;7.18;4.65;;;;;;;6.87;nan;101412.97;5031965;28;20491;-85
2023/01/04 08:44:57;;;;;;;7.43;4.30;;;;;;;6.88;nan;101404.13;5014285;28;20076;-85
2023/01/04 08:47:22;;;;;;;7.30;4.18;;;;;;;6.91;nan;101413.56;5014112;28;20495;-86
2023/01/04 08:49:47;;;;;;;6.55;3.85;;;;;;;6.92;nan;101402.13;5014789;28;20033;-86
2023/01/04 08:52:14;;;;;;;6.80;3.88;;;;;;;6.93;nan;101412.53;5030703;28;20541;-85
2023/01/04 08:54:40;;;;;;;5.38;3.47;;;;;;;6.97;nan;101407.91;5015504;28;20627;-85
2023/01/04 08:57:05;;;;;;;7.53;3.65;;;;;;;7.00;nan;101403.25;5037542;28;20102;-85
2023/01/04 08:59:30;;;;;;;5.13;3.20;;;;;;;7.02;nan;101403.16;5034988;28;20037;-86
2023/01/04 09:01:55;;;;;;;6.40;3.65;;;;;;;7.01;nan;101397.06;5015666;28;20048;-85
2023/01/04 09:04:21;;;;;;;6.88;3.15;;;;;;;7.05;nan;101387.16;5011239;28;20037;-85
2023/01/04 09:06:46;;;;;;;3.88;2.67;;;;;;;7.09;nan;101393.06;5022844;28;20037;-85
2023/01/04 09:09:11;;;;;;;4.50;2.92;;;;;;;7.16;nan;101396.94;5014913;28;20112;-85
2023/01/04 09:11:37;;;;;;;4.75;2.50;;;;;;;7.17;nan;101388.09;5014932;28;20057;-85
2023/01/04 09:14:02;;;;;;;4.28;2.70;;;;;;;7.18;nan;101379.25;5013845;28;20044;-85
2023/01/04 09:16:28;;;;;;;5.57;2.40;;;;;;;7.23;nan;101387.66;5031631;28;20056;-85
2023/01/04 09:18:54;;;;;;;6.20;2.20;;;;;;;7.30;nan;101386.28;5014561;28;20056;-85
2023/01/04 09:21:20;;;;;;;4.15;2.65;;;;;;;7.26;nan;101379.56;5015020;28;20034;-85
2023/01/04 09:23:47;;;;;;;3.10;2.28;;;;;;;7.32;nan;101376.50;5013357;28;20116;-85
2023/01/04 09:26:15;;;;;;;3.33;2.30;;;;;;;7.34;nan;101369.34;5015041;28;20545;-85
2023/01/04 09:28:40;;;;;;;5.55;2.30;;;;;;;7.38;nan;101364.69;5014555;28;20037;-85
2023/01/04 09:31:15;;;;;;;4.60;2.15;;;;;;;7.44;nan;101380.88;5030246;28;20041;-85
2023/01/04 09:33:41;;;;;;;2.50;1.77;;;;;;;7.48;nan;101376.22;5023226;28;20041;-85
2023/01/04 09:36:09;;;;;;;4.38;2.13;;;;;;;7.54;nan;101388.09;5031467;28;20156;-85
2023/01/04 09:38:35;;;;;;;4.70;1.80;;;;;;;7.56;nan;101376.50;5015307;28;20036;-86
2023/01/04 09:41:03;;;;;;;3.05;1.63;;;;;;;7.61;nan;101361.22;5031058;28;20526;-85
2023/01/04 09:43:40;;;;;;;2.58;1.55;;;;;;;7.65;nan;101361.81;5014732;28;20572;-85
2023/01/04 09:46:10;;;;;;;4.03;1.88;;;;;;;7.71;nan;101361.38;5011187;28;20036;-85
2023/01/04 09:48:41;;;;;;;2.30;1.40;;;;;;;7.74;nan;101357.69;5031603;28;20431;-85
2023/01/04 09:51:14;;;;;;;4.65;1.50;;;;;;;7.75;nan;101349.69;5013637;28;20136;-85
2023/01/04 09:53:57;;;;;;;4.35;1.50;;;;;;;7.83;nan;101349.13;5032243;28;20129;-85
2023/01/04 09:56:30;;;;;;;;;;;;;;;7.88;nan;101347.81;5023824;28;20192;-85
2023/01/04 09:58:56;;;;;;;2.67;1.33;;;;;;;7.95;nan;101357.91;5020265;28;19913;-85
2023/01/04 10:01:37;;;;;;;2.92;1.05;;;;;;;7.99;nan;101348.81;5032780;28;20037;-85
2023/01/04 10:04:22;;;;;;;3.30;1.73;;;;;;;8.04;nan;101339.59;5032504;28;20037;-85
2023/01/04 10:06:47;;;;;;;2.53;1.10;;;;;;;8.09;nan;101348.00;5032349;28;20128;-85
2023/01/04 10:09:15;;;;;;;2.47;1.38;;;;;;;8.16;nan;101340.47;5035838;28;20053;-85
2023/01/04 10:12:15;;;;;;;2.78;1.52;;;;;;;8.22;nan;101334.75;5033036;28;20615;-85
2023/01/04 10:15:10;;;;;;;1.65;1.00;;;;;;;8.24;nan;101338.09;5026239;28;20049;-84
2023/01/04 10:17:55;;;;;;;2.13;1.20;;;;;;;8.30;nan;101342.91;5012826;28;20080;-86
2023/01/04 10:20:55;;;;;;;3.28;1.20;;;;;;;8.33;nan;101346.28;5022613;28;20042;-85
2023/01/04 10:23:52;;;;;;;3.90;1.45;;;;;;;8.33;nan;101348.91;5032182;28;20055;-85
2023/01/04 10:26:45;;;;;;;2.97;1.33;;;;;;;8.34;nan;101334.75;4993389;28;20053;-85
2023/01/04 10:29:42;;;;;;;2.88;1.30;;;;;;;8.34;nan;101334.75;5028621;28;20034;-85
2023/01/04 10:32:16;;;;;;;2.38;1.23;;;;;;;8.36;nan;101317.03;5002729;28;20037;-85
2023/01/04 10:34:44;;;;;;;2.13;1.10;;;;;;;8.40;nan;101324.63;5010832;28;20033;-84
2023/01/04 10:37:22;;;;;;;3.95;1.20;;;;;;;8.36;nan;101306.50;5033486;28;20033;-85
2023/01/04 10:39:51;;;;;;;3.85;1.42;;;;;;;8.38;nan;101313.31;5040920;28;20040;-84
2023/01/04 10:42:20;;;;;;;2.92;1.45;;;;;;;8.41;nan;101310.47;5021093;28;20272;-84
2023/01/04 10:45:04;;;;;;;3.05;1.20;;;;;;;8.40;nan;101311.44;5031725;28;20136;-85
2023/01/04 10:48:03;;;;;;;3.10;1.60;;;;;;;8.44;nan;101312.06;4993931;28;20030;-84
2023/01/04 10:50:47;;;;;;;4.07;1.50;;;;;;;8.49;nan;101309.91;5015908;28;20099;-84
2023/01/04 10:53:23;;;;;;;4.40;1.30;;;;;;;8.51;nan;101302.72;5012874;28;20036;-84
2023/01/04 10:56:00;;;;;;;3.38;1.35;;;;;;;8.54;nan;101307.75;5013285;28;20048;-85
2023/01/04 10:58:40;;;;;;;3.08;1.60;;;;;;;8.59;nan;101302.94;5012132;28;20049;-84
2023/01/04 11:01:32;;;;;;;4.68;1.60;;;;;;;8.60;nan;101301.16;5030327;28;20033;-85
2023/01/04 11:04:19;;;;;;;2.47;1.30;;;;;;;8.59;nan;101295.03;5030834;28;20033;-85
2023/01/04 11:06:51;;;;;;;5.68;1.55;;;;;;;8.64;nan;101299.97;5013030;28;20029;-84
2023/01/04 11:09:29;;;;;;;2.90;1.40;;;;;;;8.64;nan;101298.16;5013696;28;20045;-85
2023/01/04 11:11:56;;;;;;;4.13;1.40;;;;;;;8.63;nan;101290.38;5013552;28;20037;-85
2023/01/04 11:14:23;;;;;;;3.72;1.40;;;;;;;8.61;nan;101289.66;5012345;28;20029;-84
2023/01/04 11:16:51;;;;;;;2.42;1.42;;;;;;;8.59;nan;101286.31;5030482;28;20423;-84
2023/01/04 11:19:17;;;;;;;1.88;1.30;;;;;;;8.64;nan;101287.59;5029557;28;20057;-85
2023/01/04 11:21:49;;;;;;;3.15;1.40;;;;;;;8.62;nan;101273.69;5012169;28;20071;-85
2023/01/04 11:24:16;;;;;;;3.90;1.50;;;;;;;8.68;nan;101278.50;5011898;28;20041;-85
2023/01/04 11:26:43;;;;;;;2.60;1.50;;;;;;;8.71;nan;101272.16;5013292;28;20041;-85
2023/01/04 11:29:24;;;;;;;3.78;1.48;;;;;;;8.72;nan;101284.34;5013396;28;20113;-85
2023/01/04 11:32:05;;;;;;;3.70;1.40;;;;;;;8.78;nan;101289.16;5012960;28;20037;-85
2023/01/04 11:34:52;;;;;;;3.00;1.40;;;;;;;8.76;nan;101283.16;5014638;28;20043;-85
2023/01/04 11:37:25;;;;;;;2.60;1.60;;;;;;;8.78;nan;101277.78;5016827;28;20039;-85
2023/01/04 11:39:50;;;;;;;2.95;1.40;;;;;;;8.78;nan;101270.69;5018915;28;20049;-85
2023/01/04 11:42:20;;;;;;;2.78;1.50;;;;;;;8.72;nan;101252.72;5035263;28;20147;-85
2023/01/04 11:44:57;;;;;;;2.60;1.52;;;;;;;8.78;nan;101236.41;5018484;28;20048;-85
2023/01/04 11:47:24;;;;;;;3.80;1.48;;;;;;;8.75;nan;101244.59;5018576;28;20045;-85
2023/01/04 11:49:50;;;;;;;3.47;1.73;;;;;;;8.74;nan;101239.44;5018294;28;20523;-84
2023/01/04 11:52:30;;;;;;;3.47;1.52;;;;;;;8.83;nan;101233.41;5016920;28;20049;-84
2023/01/04 11:54:56;;;;;;;4.27;1.40;;;;;;;8.87;nan;101234.84;5018700;28;20101;-85
2023/01/04 11:57:21;;;;;;;3.00;1.40;;;;;;;8.91;nan;101231.00;5017216;28;20048;-85
2023/01/04 12:00:07;;;;;;;2.20;1.40;;;;;;;8.96;nan;101242.00;5016285;28;20045;-85
2023/01/04 12:02:33;;;;;;;3.80;1.63;;;;;;;8.98;nan;101236.63;5016485;28;20072;-84
2023/01/04 12:04:59;;;;;;;2.10;1.17;;;;;;;9.04;nan;101233.50;5017038;28;20116;-84
2023/01/04 12:07:34;;;;;;;1.90;1.10;;;;;;;9.07;nan;101228.78;5016057;28;20049;-85
2023/01/04 12:10:02;;;;;;;3.15;1.10;;;;;;;9.13;nan;101227.47;5033480;28;20036;-85
2023/01/04 12:12:30;;;;;;;3.30;1.30;;;;;;;9.20;nan;101214.59;5014429;28;20041;-85
2023/01/04 12:15:02;;;;;;;2.55;1.40;;;;;;;9.19;nan;101220.84;5015332;28;20087;-86
2023/01/04 12:17:41;;;;;;;2.72;1.30;;;;;;;9.18;nan;101212.09;5025063;28;20061;-85
2023/01/04 12:20:14;;;;;;;2.22;1.38;;;;;;;9.23;nan;101199.34;5013608;28;20026;-85
2023/01/04 12:22:40;;;;;;;2.63;1.27;;;;;;;9.22;nan;101186.28;5015689;28;20025;-85
2023/01/04 12:25:26;;;;;;;2.70;1.20;;;;;;;9.33;nan;101171.22;5016098;28;20439;-85
2023/01/04 12:27:54;;;;;;;;;;;;;;;9.38;nan;101167.38;5016339;28;20037;-85
2023/01/04 12:30:44;;;;;;;4.82;1.33;;;;;;;9.43;nan;101158.09;5032990;28;19917;-85
2023/01/04 12:33:28;;;;;;;3.00;1.50;;;;;;;9.49;nan;101157.59;5032402;28;20072;-85
2023/01/04 12:36:05;;;;;;;3.83;1.30;;;;;;;9.53;nan;101159.03;5027855;28;20042;-86
2023/01/04 12:38:49;;;;;;;;;;;;;;;9.51;nan;101162.72;5014584;28;20076;-85
2023/01/04 12:41:14;;;;;;;;;;;;;;;9.57;nan;101138.47;5035060;28;19920;-85
2023/01/04 12:43:39;;;;;;;3.47;1.42;;;;;;;9.62;nan;101146.00;5034912;28;19917;-85
2023/01/04 12:49:26;;;;;;;2.72;1.50;;;;;;;9.64;nan;101134.34;5040934;28;20055;-85
2023/01/04 12:52:06;;;;;;;4.03;1.55;;;;;;;9.67;nan;101133.22;5033567;28;20533;-85